createdAt,value
2023-03-27T06:47:55.568Z,8.15
2023-03-27T06:50:51.458Z,8.88
2023-03-27T06:53:27.713Z,9.90
2023-03-27T06:55:57.766Z,8.48
2023-03-27T06:58:34.787Z,8.88
2023-03-27T07:01:08.253Z,8.23
2023-03-27T07:03:58.955Z,10.23
2023-03-27T07:06:50.834Z,9.20
2023-03-27T07:09:21.869Z,7.85
2023-03-27T07:12:04.315Z,9.48
2023-03-27T07:14:36.620Z,9.98
2023-03-27T07:17:09.762Z,8.60
2023-03-27T07:19:53.167Z,9.20
2023-03-27T07:22:28.042Z,8.90
2023-03-27T07:25:05.923Z,8.52
2023-03-27T07:27:40.088Z,8.23
2023-03-27T07:30:12.282Z,9.25
2023-03-27T07:32:50.747Z,9.95
2023-03-27T07:35:22.002Z,8.38
2023-03-27T07:38:27.683Z,7.97
2023-03-27T07:41:23.125Z,8.75
2023-03-27T07:44:24.008Z,8.88
2023-03-27T07:47:08.157Z,8.60
2023-03-27T07:49:45.482Z,8.27
2023-03-27T07:55:03.764Z,8.30
2023-03-27T07:57:57.969Z,8.82
2023-03-27T08:00:41.791Z,8.13
2023-03-27T08:03:16.266Z,9.52
2023-03-27T08:05:59.844Z,9.48
2023-03-27T08:08:34.091Z,8.48
2023-03-27T08:11:23.196Z,9.40
2023-03-27T08:13:58.596Z,9.02
2023-03-27T08:16:34.053Z,8.25
2023-03-27T08:21:39.419Z,8.50
2023-03-27T08:24:07.702Z,8.48
2023-03-27T08:26:37.853Z,8.05
2023-03-27T08:29:13.195Z,9.23
2023-03-27T08:31:52.261Z,7.70
2023-03-27T08:34:28.087Z,7.72
2023-03-27T08:36:55.903Z,7.88
2023-03-27T08:39:33.022Z,8.40
2023-03-27T08:42:13.699Z,8.70
2023-03-27T08:44:56.283Z,8.38
2023-03-27T08:47:47.716Z,9.18
2023-03-27T08:50:44.205Z,8.23
2023-03-27T08:53:48.964Z,7.32
2023-03-27T08:56:31.948Z,6.82
2023-03-27T08:59:05.830Z,8.90
2023-03-27T09:01:58.050Z,6.82
2023-03-27T09:04:34.253Z,8.23
2023-03-27T09:07:28.664Z,6.93
2023-03-27T09:10:33.620Z,7.40
2023-03-27T09:13:38.728Z,7.68
2023-03-27T09:16:32.454Z,7.43
2023-03-27T09:19:14.212Z,5.43
2023-03-27T09:21:51.527Z,8.05
2023-03-27T09:24:46.835Z,6.40
2023-03-27T09:27:46.442Z,7.90
2023-03-27T09:30:47.573Z,7.53
2023-03-27T09:33:33.720Z,5.82
2023-03-27T09:36:12.575Z,8.63
2023-03-27T09:38:51.452Z,5.88
2023-03-27T09:41:42.628Z,7.05
2023-03-27T09:44:28.226Z,6.78
2023-03-27T09:47:11.119Z,6.65
2023-03-27T09:49:52.964Z,6.90
2023-03-27T09:52:46.207Z,6.65
2023-03-27T09:55:35.533Z,6.43
2023-03-27T09:58:22.456Z,7.00
2023-03-27T10:01:09.919Z,6.03
2023-03-27T10:03:42.127Z,7.72
2023-03-27T10:09:02.390Z,5.72
2023-03-27T10:11:42.092Z,6.43
2023-03-27T10:14:26.359Z,5.10
2023-03-27T10:17:01.720Z,7.45
2023-03-27T10:19:38.737Z,5.65
2023-03-27T10:22:32.124Z,5.97
2023-03-27T10:25:18.214Z,6.93
2023-03-27T10:28:18.665Z,4.25
2023-03-27T10:31:36.322Z,6.00
2023-03-27T10:34:38.394Z,5.70
2023-03-27T10:37:34.161Z,4.90
2023-03-27T10:40:44.305Z,5.13
2023-03-27T10:43:36.068Z,4.50
2023-03-27T10:46:17.213Z,4.82
2023-03-27T10:49:17.500Z,5.68
2023-03-27T10:52:32.468Z,5.30
2023-03-27T10:55:41.549Z,4.18
2023-03-27T10:58:36.704Z,5.20
2023-03-27T11:01:29.196Z,5.85
2023-03-27T11:04:19.209Z,4.82
2023-03-27T11:06:59.860Z,4.18
2023-03-27T11:09:53.668Z,6.30
2023-03-27T11:12:30.561Z,5.60
2023-03-27T11:15:19.835Z,5.32
2023-03-27T11:18:28.535Z,4.00
2023-03-27T11:21:20.793Z,4.37
2023-03-27T11:24:09.697Z,5.05
2023-03-27T11:27:05.281Z,3.95
2023-03-27T11:29:46.748Z,4.80
2023-03-27T11:32:43.915Z,4.80
2023-03-27T11:35:28.949Z,4.78
2023-03-27T11:38:23.188Z,6.53
2023-03-27T11:40:56.763Z,4.15
2023-03-27T11:43:40.450Z,6.15
2023-03-27T11:46:51.784Z,3.30
2023-03-27T11:49:55.311Z,5.38
2023-03-27T11:52:50.366Z,5.38
2023-03-27T11:55:42.825Z,3.47
2023-03-27T11:58:19.718Z,4.95
2023-03-27T12:01:32.311Z,3.83
2023-03-27T12:04:21.869Z,4.18
2023-03-27T12:07:47.699Z,3.83
2023-03-27T12:10:43.846Z,4.43
2023-03-27T12:13:58.160Z,3.88
2023-03-27T12:16:56.300Z,4.53
2023-03-27T12:19:49.733Z,5.53
2023-03-27T12:22:52.079Z,3.92
2023-03-27T12:25:54.646Z,3.92
2023-03-27T12:29:24.504Z,3.75
2023-03-27T12:32:25.696Z,6.35
2023-03-27T12:34:59.071Z,5.57
2023-03-27T12:38:00.065Z,3.70
2023-03-27T12:40:33.424Z,4.20
2023-03-27T12:43:32.646Z,3.40
2023-03-27T12:46:25.681Z,4.72
2023-03-27T12:49:00.427Z,2.95
2023-03-27T12:51:51.256Z,4.13
2023-03-27T12:55:31.021Z,5.32
2023-03-27T12:58:14.779Z,5.28
2023-03-27T13:01:00.867Z,5.43
2023-03-27T13:04:26.466Z,5.27
2023-03-27T13:07:13.480Z,3.38
2023-03-27T13:10:26.741Z,4.40
2023-03-27T13:13:20.699Z,3.10
2023-03-27T13:16:19.703Z,4.60
2023-03-27T13:19:13.255Z,3.70
2023-03-27T13:22:29.970Z,3.80
2023-03-27T13:25:12.761Z,3.83
2023-03-27T13:28:11.157Z,4.68
2023-03-27T13:30:58.086Z,5.13
2023-03-27T13:34:08.628Z,6.75
2023-03-27T13:37:15.282Z,3.35
2023-03-27T13:40:08.681Z,4.20
2023-03-27T13:42:47.874Z,3.65
2023-03-27T13:45:32.296Z,5.28
2023-03-27T13:49:07.304Z,3.13
2023-03-27T13:52:10.854Z,4.53
2023-03-27T13:55:16.904Z,4.80
2023-03-27T13:58:32.718Z,2.08
2023-03-27T14:01:18.721Z,2.83
2023-03-27T14:04:18.359Z,3.28
2023-03-27T14:07:11.399Z,2.38
2023-03-27T14:10:03.813Z,1.98
2023-03-27T14:13:10.268Z,4.20
2023-03-27T14:15:59.701Z,2.67
2023-03-27T14:18:38.776Z,3.08
2023-03-27T14:21:31.435Z,2.17
2023-03-27T14:24:23.056Z,4.07
2023-03-27T14:27:04.186Z,2.78
2023-03-27T14:29:32.711Z,1.92
2023-03-27T14:32:09.037Z,1.73
2023-03-27T14:34:53.374Z,3.28
2023-03-27T14:37:39.374Z,1.70
2023-03-27T14:40:45.472Z,1.85
2023-03-27T14:43:21.274Z,2.13
2023-03-27T14:45:59.880Z,5.63
2023-03-27T14:48:44.351Z,2.85
2023-03-27T14:51:37.655Z,1.40
2023-03-27T14:54:27.027Z,1.52
2023-03-27T14:57:09.451Z,2.15
2023-03-27T14:59:49.922Z,1.75
2023-03-27T15:02:29.012Z,1.50
2023-03-27T15:05:27.931Z,2.25
2023-03-27T15:08:21.042Z,2.17
2023-03-27T15:11:17.766Z,2.58
2023-03-27T15:14:14.103Z,3.20
2023-03-27T15:16:50.621Z,2.80
2023-03-27T15:19:26.277Z,2.47
2023-03-27T15:22:07.589Z,2.60
2023-03-27T15:24:50.971Z,4.35
2023-03-27T15:27:30.221Z,2.72
2023-03-27T15:30:09.134Z,3.50
2023-03-27T15:32:50.940Z,3.63
2023-03-27T15:35:31.617Z,2.83
2023-03-27T15:38:06.436Z,4.25
2023-03-27T15:40:43.044Z,2.80
2023-03-27T15:43:14.035Z,3.40
2023-03-27T15:46:02.765Z,2.95
2023-03-27T15:48:37.820Z,3.67
2023-03-27T15:51:14.850Z,3.08
2023-03-27T15:54:08.722Z,3.08
2023-03-27T15:56:44.997Z,2.42
2023-03-27T15:59:22.484Z,3.13
2023-03-27T16:02:01.332Z,2.00
2023-03-27T16:04:58.594Z,2.60
2023-03-27T16:07:39.271Z,3.42
2023-03-27T16:10:36.504Z,1.63
2023-03-27T16:13:31.761Z,2.00
2023-03-27T16:16:19.066Z,1.88
2023-03-27T16:18:54.023Z,1.58
2023-03-27T16:21:37.319Z,4.65
2023-03-27T16:24:11.024Z,2.33
2023-03-27T16:29:25.579Z,3.08
2023-03-27T16:32:03.754Z,1.90
2023-03-27T16:34:40.687Z,3.67
2023-03-27T16:37:17.669Z,3.78
2023-03-27T16:39:56.375Z,1.00
2023-03-27T16:42:38.353Z,2.25
2023-03-27T16:45:16.852Z,2.22
2023-03-27T16:47:53.077Z,2.80
2023-03-27T16:50:29.118Z,4.05
2023-03-27T16:53:08.741Z,2.00
2023-03-27T16:55:51.045Z,2.15
2023-03-27T16:58:19.932Z,1.10
2023-03-27T17:00:50.863Z,1.63
2023-03-27T17:03:31.232Z,1.35
2023-03-27T17:06:09.533Z,1.10
2023-03-27T17:08:55.626Z,1.88
2023-03-27T17:11:31.568Z,1.77
2023-03-27T17:14:08.587Z,1.30
2023-03-27T17:16:37.399Z,1.10
2023-03-27T17:19:11.687Z,1.98
2023-03-27T17:22:01.121Z,2.13
2023-03-27T17:24:45.678Z,1.83
2023-03-27T17:27:33.104Z,2.53
2023-03-27T17:30:10.192Z,2.78
2023-03-27T17:32:42.912Z,1.67
2023-03-27T17:35:24.098Z,1.77
2023-03-27T17:37:56.574Z,1.50
2023-03-27T17:40:24.370Z,1.48
2023-03-27T17:42:53.022Z,1.45
2023-03-27T17:45:23.950Z,1.85
2023-03-27T17:47:54.940Z,1.20
2023-03-27T17:50:26.249Z,4.25
2023-03-27T17:52:56.790Z,1.83
2023-03-27T17:55:27.317Z,2.05
2023-03-27T17:58:08.829Z,1.25
2023-03-27T18:00:45.168Z,2.90
2023-03-27T18:03:21.544Z,3.03
2023-03-27T18:05:56.639Z,1.73
2023-03-27T18:08:27.376Z,0.85
2023-03-27T18:11:00.950Z,1.00
2023-03-27T18:16:10.725Z,1.10
2023-03-27T18:18:48.943Z,1.55
2023-03-27T18:21:25.124Z,1.92
2023-03-27T18:24:01.356Z,1.48
2023-03-27T18:26:37.203Z,1.65
2023-03-27T18:29:10.960Z,1.73
2023-03-27T18:31:47.299Z,1.83
2023-03-27T18:34:16.529Z,1.42
2023-03-27T18:36:51.808Z,1.45
2023-03-27T18:39:24.671Z,1.77
2023-03-27T18:42:01.575Z,1.88
2023-03-27T18:44:32.859Z,2.03
2023-03-27T18:47:05.684Z,2.97
2023-03-27T18:49:39.869Z,0.90
2023-03-27T18:52:12.134Z,1.73
2023-03-27T18:54:53.305Z,1.20
2023-03-27T18:57:27.888Z,2.42
2023-03-27T19:00:09.283Z,1.45
2023-03-27T19:02:45.694Z,1.63
2023-03-27T19:05:19.310Z,1.48
2023-03-27T19:07:57.671Z,1.42
2023-03-27T19:10:34.973Z,3.30
2023-03-27T19:13:28.546Z,1.50
2023-03-27T19:16:26.137Z,1.35
2023-03-27T19:19:00.867Z,2.65
2023-03-27T19:21:52.268Z,2.25
2023-03-27T19:24:37.148Z,2.25
2023-03-27T19:27:08.505Z,2.15
2023-03-27T19:29:54.790Z,1.90
2023-03-27T19:32:29.427Z,2.40
2023-03-27T19:35:05.462Z,2.60
2023-03-27T19:37:37.301Z,0.70
2023-03-27T19:40:14.394Z,1.73
2023-03-27T19:42:45.015Z,2.03
2023-03-27T19:45:16.414Z,1.35
2023-03-27T19:47:55.719Z,1.98
2023-03-27T19:50:34.645Z,2.10
2023-03-27T19:53:18.496Z,1.23
2023-03-27T19:55:49.353Z,1.73
2023-03-27T19:58:26.684Z,1.15
2023-03-27T20:01:04.762Z,3.30
2023-03-27T20:03:39.976Z,2.25
2023-03-27T20:06:18.573Z,2.72
2023-03-27T20:08:52.020Z,1.60
2023-03-27T20:11:33.589Z,1.23
2023-03-27T20:14:09.485Z,0.60
2023-03-27T20:16:43.556Z,1.98
2023-03-27T20:19:21.975Z,1.70
2023-03-27T20:22:00.761Z,2.45
2023-03-27T20:24:43.765Z,1.98
2023-03-27T20:27:20.108Z,2.13
2023-03-27T20:29:54.636Z,1.00
2023-03-27T20:32:27.556Z,0.95
2023-03-27T20:35:23.012Z,2.00
2023-03-27T20:38:08.714Z,1.75
2023-03-27T20:43:22.840Z,4.50
2023-03-27T20:45:55.083Z,2.75
2023-03-27T20:48:41.760Z,1.63
2023-03-27T20:51:24.964Z,1.15
2023-03-27T20:54:00.131Z,1.75
2023-03-27T20:56:34.384Z,1.42
2023-03-27T20:59:11.310Z,1.83
2023-03-27T21:01:50.725Z,3.00
2023-03-27T21:04:28.265Z,4.00
2023-03-27T21:07:05.109Z,2.65
2023-03-27T21:09:38.609Z,2.33
2023-03-27T21:12:12.946Z,1.40
2023-03-27T21:14:44.131Z,2.05
2023-03-27T21:17:20.861Z,1.42
2023-03-27T21:19:54.055Z,0.85
2023-03-27T21:22:32.770Z,2.72
2023-03-27T21:25:11.645Z,1.90
2023-03-27T21:27:51.506Z,1.42
2023-03-27T21:30:46.952Z,1.38
2023-03-27T21:33:21.830Z,3.40
2023-03-27T21:35:54.933Z,2.78
2023-03-27T21:38:28.631Z,0.98
2023-03-27T21:43:36.684Z,0.68
2023-03-27T21:46:07.205Z,2.40
2023-03-27T21:48:48.556Z,1.48
2023-03-27T21:51:27.295Z,1.10
2023-03-27T21:54:02.550Z,1.40
2023-03-27T21:56:44.526Z,1.30
2023-03-27T21:59:18.322Z,1.27
2023-03-27T22:01:54.190Z,3.00
2023-03-27T22:04:32.916Z,2.00
2023-03-27T22:07:08.449Z,0.77
2023-03-27T22:09:45.460Z,1.52
2023-03-27T22:12:16.793Z,1.20
2023-03-27T22:14:55.492Z,2.28
2023-03-27T22:17:34.257Z,0.95
2023-03-27T22:20:13.373Z,2.33
2023-03-27T22:22:43.674Z,1.13
2023-03-27T22:25:19.889Z,1.63
2023-03-27T22:27:55.052Z,0.60
2023-03-27T22:30:32.487Z,0.90
2023-03-27T22:33:10.176Z,0.95
2023-03-27T22:35:48.011Z,3.22
2023-03-27T22:38:20.702Z,0.93
2023-03-27T22:40:56.060Z,1.83
2023-03-27T22:43:32.456Z,2.55
2023-03-27T22:46:29.539Z,1.23
2023-03-27T22:49:11.045Z,1.73
2023-03-27T22:51:44.400Z,1.48
2023-03-27T22:54:27.983Z,2.05
2023-03-27T22:57:02.657Z,1.00
2023-03-27T22:59:36.497Z,1.27
2023-03-27T23:02:12.841Z,0.90
2023-03-27T23:07:32.677Z,2.45
2023-03-27T23:10:15.081Z,1.25
2023-03-27T23:12:51.418Z,0.70
2023-03-27T23:15:35.853Z,1.15
2023-03-27T23:18:13.397Z,3.30
2023-03-27T23:20:44.887Z,2.10
2023-03-27T23:23:19.346Z,1.58
2023-03-27T23:25:57.935Z,1.48
2023-03-27T23:28:42.904Z,2.08
2023-03-27T23:31:25.628Z,1.13
2023-03-27T23:33:59.894Z,2.50
2023-03-27T23:36:38.636Z,2.17
2023-03-27T23:39:17.583Z,2.15
2023-03-27T23:41:56.943Z,1.58
2023-03-27T23:44:30.648Z,1.70
2023-03-27T23:49:45.776Z,1.13
2023-03-27T23:52:19.777Z,0.95
2023-03-27T23:55:04.852Z,2.60
2023-03-27T23:57:43.422Z,2.97
